sensor_id;sensor_type;location;lat;lon;timestamp;pressure;altitude;pressure_sealevel;temperature;humidity
41234;BME280;26968;42.686;23.352;2023-02-18T00:00:38;95999.91;;;4.83;nan
41234;BME280;26968;42.686;23.352;2023-02-18T00:03:07;95987.38;;;4.60;nan
41234;BME280;26968;42.686;23.352;2023-02-18T00:05:33;95992.03;;;4.58;nan
41234;BME280;26968;42.686;23.352;2023-02-18T00:07:58;95957.13;;;4.33;nan
41234;BME280;26968;42.686;23.352;2023-02-18T00:10:24;95981.47;;;4.47;nan
41234;BME280;26968;42.686;23.352;2023-02-18T00:12:50;95987.19;;;4.37;nan
41234;BME280;26968;42.686;23.352;2023-02-18T00:15:18;95977.22;;;4.46;nan
41234;BME280;26968;42.686;23.352;2023-02-18T00:17:43;95980.16;;;4.56;nan
41234;BME280;26968;42.686;23.352;2023-02-18T00:20:10;95879.66;;;3.99;nan
41234;BME280;26968;42.686;23.352;2023-02-18T00:22:37;95966.91;;;4.44;nan
41234;BME280;26968;42.686;23.352;2023-02-18T00:25:03;95960.31;;;4.35;nan
41234;BME280;26968;42.686;23.352;2023-02-18T00:27:28;95935.38;;;4.26;nan
41234;BME280;26968;42.686;23.352;2023-02-18T00:29:58;95932.59;;;4.21;nan
41234;BME280;26968;42.686;23.352;2023-02-18T00:32:23;95921.44;;;4.25;nan
41234;BME280;26968;42.686;23.352;2023-02-18T00:34:49;95857.28;;;3.47;nan
41234;BME280;26968;42.686;23.352;2023-02-18T00:37:20;95922.63;;;4.05;nan
41234;BME280;26968;42.686;23.352;2023-02-18T00:39:48;95905.81;;;3.87;nan
41234;BME280;26968;42.686;23.352;2023-02-18T00:42:16;95927.25;;;4.27;nan
41234;BME280;26968;42.686;23.352;2023-02-18T00:44:41;95860.00;;;3.83;nan
41234;BME280;26968;42.686;23.352;2023-02-18T00:47:07;95935.53;;;4.31;nan
41234;BME280;26968;42.686;23.352;2023-02-18T00:49:35;95931.44;;;4.35;nan
41234;BME280;26968;42.686;23.352;2023-02-18T00:52:00;95937.69;;;4.41;nan
41234;BME280;26968;42.686;23.352;2023-02-18T00:54:26;95931.44;;;4.35;nan
41234;BME280;26968;42.686;23.352;2023-02-18T00:56:52;95929.59;;;4.42;nan
41234;BME280;26968;42.686;23.352;2023-02-18T00:59:20;95924.25;;;4.49;nan
41234;BME280;26968;42.686;23.352;2023-02-18T01:01:47;95882.75;;;4.14;nan
41234;BME280;26968;42.686;23.352;2023-02-18T01:04:12;95898.72;;;4.13;nan
41234;BME280;26968;42.686;23.352;2023-02-18T01:06:38;95948.44;;;4.33;nan
41234;BME280;26968;42.686;23.352;2023-02-18T01:09:04;95892.56;;;4.01;nan
41234;BME280;26968;42.686;23.352;2023-02-18T01:11:30;95852.13;;;3.59;nan
41234;BME280;26968;42.686;23.352;2023-02-18T01:13:56;95846.88;;;3.59;nan
41234;BME280;26968;42.686;23.352;2023-02-18T01:16:21;95932.81;;;3.95;nan
41234;BME280;26968;42.686;23.352;2023-02-18T01:18:47;95933.16;;;3.98;nan
41234;BME280;26968;42.686;23.352;2023-02-18T01:21:12;95920.28;;;3.97;nan
41234;BME280;26968;42.686;23.352;2023-02-18T01:23:40;95873.75;;;3.54;nan
41234;BME280;26968;42.686;23.352;2023-02-18T01:26:05;95832.22;;;3.51;nan
41234;BME280;26968;42.686;23.352;2023-02-18T01:28:31;95934.31;;;4.09;nan
41234;BME280;26968;42.686;23.352;2023-02-18T01:30:56;95872.03;;;3.73;nan
41234;BME280;26968;42.686;23.352;2023-02-18T01:33:22;95874.63;;;3.48;nan
41234;BME280;26968;42.686;23.352;2023-02-18T01:35:47;95841.03;;;3.32;nan
41234;BME280;26968;42.686;23.352;2023-02-18T01:38:13;95818.91;;;3.21;nan
41234;BME280;26968;42.686;23.352;2023-02-18T01:40:49;95885.25;;;3.53;nan
41234;BME280;26968;42.686;23.352;2023-02-18T01:43:17;95906.19;;;3.60;nan
41234;BME280;26968;42.686;23.352;2023-02-18T01:46:03;95898.63;;;3.45;nan
41234;BME280;26968;42.686;23.352;2023-02-18T01:48:36;95936.50;;;3.87;nan
41234;BME280;26968;42.686;23.352;2023-02-18T01:53:35;95940.34;;;3.84;nan
41234;BME280;26968;42.686;23.352;2023-02-18T01:56:04;95955.28;;;3.84;nan
41234;BME280;26968;42.686;23.352;2023-02-18T01:58:31;95946.31;;;3.67;nan
41234;BME280;26968;42.686;23.352;2023-02-18T02:00:56;95837.59;;;3.00;nan
41234;BME280;26968;42.686;23.352;2023-02-18T02:03:22;95757.03;;;2.57;nan
41234;BME280;26968;42.686;23.352;2023-02-18T02:05:47;95935.72;;;3.48;nan
41234;BME280;26968;42.686;23.352;2023-02-18T02:08:13;95859.69;;;3.17;nan
41234;BME280;26968;42.686;23.352;2023-02-18T02:11:15;95928.53;;;3.69;nan
41234;BME280;26968;42.686;23.352;2023-02-18T02:13:56;95929.34;;;3.69;nan
41234;BME280;26968;42.686;23.352;2023-02-18T02:17:01;95933.28;;;3.54;nan
41234;BME280;26968;42.686;23.352;2023-02-18T02:33:49;95934.78;;;3.36;nan
41234;BME280;26968;42.686;23.352;2023-02-18T02:36:22;95905.78;;;3.31;nan
41234;BME280;26968;42.686;23.352;2023-02-18T02:38:59;95918.09;;;3.62;nan
41234;BME280;26968;42.686;23.352;2023-02-18T02:41:37;95856.03;;;3.18;nan
41234;BME280;26968;42.686;23.352;2023-02-18T02:44:17;95834.72;;;3.08;nan
41234;BME280;26968;42.686;23.352;2023-02-18T02:46:47;95905.69;;;3.44;nan
41234;BME280;26968;42.686;23.352;2023-02-18T02:52:25;95915.66;;;3.29;nan
41234;BME280;26968;42.686;23.352;2023-02-18T02:54:52;95873.22;;;3.07;nan
41234;BME280;26968;42.686;23.352;2023-02-18T02:59:47;95891.50;;;3.21;nan
41234;BME280;26968;42.686;23.352;2023-02-18T03:05:18;95929.78;;;3.28;nan
41234;BME280;26968;42.686;23.352;2023-02-18T03:11:05;95906.84;;;3.17;nan
41234;BME280;26968;42.686;23.352;2023-02-18T03:13:52;95919.97;;;3.17;nan
41234;BME280;26968;42.686;23.352;2023-02-18T03:21:38;95829.19;;;2.85;nan
41234;BME280;26968;42.686;23.352;2023-02-18T03:24:37;95942.16;;;3.53;nan
41234;BME280;26968;42.686;23.352;2023-02-18T03:27:22;95923.47;;;3.42;nan
41234;BME280;26968;42.686;23.352;2023-02-18T03:29:54;95945.03;;;3.44;nan
41234;BME280;26968;42.686;23.352;2023-02-18T03:32:22;95920.97;;;3.16;nan
41234;BME280;26968;42.686;23.352;2023-02-18T03:34:53;95979.88;;;3.58;nan
41234;BME280;26968;42.686;23.352;2023-02-18T03:37:20;95913.50;;;3.20;nan
41234;BME280;26968;42.686;23.352;2023-02-18T03:39:49;95953.44;;;3.53;nan
41234;BME280;26968;42.686;23.352;2023-02-18T03:42:17;95969.69;;;3.68;nan
41234;BME280;26968;42.686;23.352;2023-02-18T03:44:43;95946.44;;;3.47;nan
41234;BME280;26968;42.686;23.352;2023-02-18T03:47:09;95858.22;;;2.83;nan
41234;BME280;26968;42.686;23.352;2023-02-18T03:49:35;95979.06;;;3.58;nan
41234;BME280;26968;42.686;23.352;2023-02-18T03:52:00;95953.91;;;3.43;nan
41234;BME280;26968;42.686;23.352;2023-02-18T03:54:26;95978.50;;;3.49;nan
41234;BME280;26968;42.686;23.352;2023-02-18T03:56:51;95960.06;;;3.24;nan
41234;BME280;26968;42.686;23.352;2023-02-18T03:59:17;95980.38;;;3.35;nan
41234;BME280;26968;42.686;23.352;2023-02-18T04:01:42;95911.97;;;2.99;nan
41234;BME280;26968;42.686;23.352;2023-02-18T04:04:08;95952.47;;;3.03;nan
41234;BME280;26968;42.686;23.352;2023-02-18T04:06:33;95944.25;;;2.93;nan
41234;BME280;26968;42.686;23.352;2023-02-18T04:08:59;95890.94;;;2.74;nan
41234;BME280;26968;42.686;23.352;2023-02-18T04:11:24;95970.13;;;3.27;nan
41234;BME280;26968;42.686;23.352;2023-02-18T04:13:51;95967.09;;;3.24;nan
41234;BME280;26968;42.686;23.352;2023-02-18T04:16:17;95955.69;;;3.12;nan
41234;BME280;26968;42.686;23.352;2023-02-18T04:18:42;95925.31;;;2.97;nan
41234;BME280;26968;42.686;23.352;2023-02-18T04:21:08;95897.59;;;2.63;nan
41234;BME280;26968;42.686;23.352;2023-02-18T04:23:33;95874.06;;;2.57;nan
41234;BME280;26968;42.686;23.352;2023-02-18T04:25:58;95942.78;;;3.10;nan
41234;BME280;26968;42.686;23.352;2023-02-18T04:28:24;95864.19;;;2.52;nan
41234;BME280;26968;42.686;23.352;2023-02-18T04:30:49;95943.38;;;3.05;nan
41234;BME280;26968;42.686;23.352;2023-02-18T04:33:14;95911.66;;;2.82;nan
41234;BME280;26968;42.686;23.352;2023-02-18T04:35:40;95924.25;;;2.98;nan
41234;BME280;26968;42.686;23.352;2023-02-18T04:38:07;95936.13;;;3.07;nan
41234;BME280;26968;42.686;23.352;2023-02-18T04:40:33;95938.13;;;3.12;nan
41234;BME280;26968;42.686;23.352;2023-02-18T04:42:59;95948.81;;;3.10;nan
41234;BME280;26968;42.686;23.352;2023-02-18T04:45:25;95922.25;;;3.00;nan
41234;BME280;26968;42.686;23.352;2023-02-18T04:47:50;95916.19;;;3.00;nan
41234;BME280;26968;42.686;23.352;2023-02-18T04:50:16;95916.97;;;3.07;nan
41234;BME280;26968;42.686;23.352;2023-02-18T04:52:44;95957.91;;;3.08;nan
41234;BME280;26968;42.686;23.352;2023-02-18T04:55:09;95912.22;;;2.84;nan
41234;BME280;26968;42.686;23.352;2023-02-18T04:57:35;95943.19;;;3.07;nan
41234;BME280;26968;42.686;23.352;2023-02-18T05:00:00;95888.72;;;2.71;nan
41234;BME280;26968;42.686;23.352;2023-02-18T05:02:27;95892.91;;;2.79;nan
41234;BME280;26968;42.686;23.352;2023-02-18T05:04:53;95919.63;;;3.00;nan
41234;BME280;26968;42.686;23.352;2023-02-18T05:07:18;95958.03;;;3.26;nan
41234;BME280;26968;42.686;23.352;2023-02-18T05:09:44;95961.22;;;3.35;nan
41234;BME280;26968;42.686;23.352;2023-02-18T05:12:09;95965.88;;;3.33;nan
41234;BME280;26968;42.686;23.352;2023-02-18T05:14:34;95788.00;;;2.09;nan
41234;BME280;26968;42.686;23.352;2023-02-18T05:17:00;95914.41;;;2.94;nan
41234;BME280;26968;42.686;23.352;2023-02-18T05:19:25;95890.50;;;2.77;nan
41234;BME280;26968;42.686;23.352;2023-02-18T05:21:51;95904.94;;;2.93;nan
41234;BME280;26968;42.686;23.352;2023-02-18T05:24:16;95931.63;;;3.28;nan
41234;BME280;26968;42.686;23.352;2023-02-18T05:26:41;95864.31;;;2.70;nan
41234;BME280;26968;42.686;23.352;2023-02-18T05:29:07;95881.69;;;2.65;nan
41234;BME280;26968;42.686;23.352;2023-02-18T05:31:32;95878.63;;;2.68;nan
41234;BME280;26968;42.686;23.352;2023-02-18T05:33:59;95951.53;;;3.35;nan
41234;BME280;26968;42.686;23.352;2023-02-18T05:36:25;95855.66;;;2.70;nan
41234;BME280;26968;42.686;23.352;2023-02-18T05:38:51;95919.63;;;3.00;nan
41234;BME280;26968;42.686;23.352;2023-02-18T05:41:16;95943.56;;;3.17;nan
41234;BME280;26968;42.686;23.352;2023-02-18T05:43:41;95962.16;;;3.47;nan
41234;BME280;26968;42.686;23.352;2023-02-18T05:46:25;95851.97;;;2.84;nan
41234;BME280;26968;42.686;23.352;2023-02-18T05:48:51;95889.94;;;3.13;nan
41234;BME280;26968;42.686;23.352;2023-02-18T05:51:16;95884.16;;;3.04;nan
41234;BME280;26968;42.686;23.352;2023-02-18T05:53:42;95973.97;;;3.63;nan
41234;BME280;26968;42.686;23.352;2023-02-18T05:56:07;95937.03;;;3.33;nan
41234;BME280;26968;42.686;23.352;2023-02-18T05:58:33;95979.75;;;3.78;nan
41234;BME280;26968;42.686;23.352;2023-02-18T06:00:58;95933.34;;;3.40;nan
41234;BME280;26968;42.686;23.352;2023-02-18T06:03:24;95904.03;;;3.19;nan
41234;BME280;26968;42.686;23.352;2023-02-18T06:05:50;95911.41;;;3.28;nan
41234;BME280;26968;42.686;23.352;2023-02-18T06:08:15;95913.94;;;3.48;nan
41234;BME280;26968;42.686;23.352;2023-02-18T06:10:40;95902.69;;;3.41;nan
41234;BME280;26968;42.686;23.352;2023-02-18T06:13:06;95950.06;;;3.77;nan
41234;BME280;26968;42.686;23.352;2023-02-18T06:15:31;95976.34;;;4.02;nan
41234;BME280;26968;42.686;23.352;2023-02-18T06:17:57;95978.13;;;4.08;nan
41234;BME280;26968;42.686;23.352;2023-02-18T06:20:22;95911.13;;;3.81;nan
41234;BME280;26968;42.686;23.352;2023-02-18T06:22:47;95957.81;;;3.97;nan
41234;BME280;26968;42.686;23.352;2023-02-18T06:25:13;95889.19;;;3.69;nan
41234;BME280;26968;42.686;23.352;2023-02-18T06:27:38;95886.31;;;3.77;nan
41234;BME280;26968;42.686;23.352;2023-02-18T06:30:04;95962.91;;;4.17;nan
41234;BME280;26968;42.686;23.352;2023-02-18T06:32:30;95917.81;;;4.02;nan
41234;BME280;26968;42.686;23.352;2023-02-18T06:34:55;95907.09;;;4.03;nan
41234;BME280;26968;42.686;23.352;2023-02-18T06:37:21;95909.22;;;4.13;nan
41234;BME280;26968;42.686;23.352;2023-02-18T06:39:46;95956.59;;;4.49;nan
41234;BME280;26968;42.686;23.352;2023-02-18T06:42:11;95904.50;;;4.21;nan
41234;BME280;26968;42.686;23.352;2023-02-18T06:44:39;95851.25;;;3.96;nan
41234;BME280;26968;42.686;23.352;2023-02-18T06:47:05;95952.88;;;4.75;nan
41234;BME280;26968;42.686;23.352;2023-02-18T06:49:30;95933.75;;;4.68;nan
41234;BME280;26968;42.686;23.352;2023-02-18T06:51:56;95957.50;;;4.98;nan
41234;BME280;26968;42.686;23.352;2023-02-18T06:54:21;95918.94;;;4.74;nan
41234;BME280;26968;42.686;23.352;2023-02-18T06:56:46;95886.25;;;4.70;nan
41234;BME280;26968;42.686;23.352;2023-02-18T06:59:12;95907.91;;;4.83;nan
41234;BME280;26968;42.686;23.352;2023-02-18T07:01:38;95870.69;;;4.68;nan
41234;BME280;26968;42.686;23.352;2023-02-18T07:04:03;95905.09;;;5.03;nan
41234;BME280;26968;42.686;23.352;2023-02-18T07:06:28;95898.34;;;5.07;nan
41234;BME280;26968;42.686;23.352;2023-02-18T07:08:54;95916.84;;;5.30;nan
41234;BME280;26968;42.686;23.352;2023-02-18T07:11:19;95891.19;;;5.14;nan
41234;BME280;26968;42.686;23.352;2023-02-18T07:13:45;95897.88;;;5.28;nan
41234;BME280;26968;42.686;23.352;2023-02-18T07:16:10;95901.06;;;5.49;nan
41234;BME280;26968;42.686;23.352;2023-02-18T07:18:36;95908.38;;;5.58;nan
41234;BME280;26968;42.686;23.352;2023-02-18T07:21:02;95872.75;;;5.44;nan
41234;BME280;26968;42.686;23.352;2023-02-18T07:23:28;95948.44;;;5.90;nan
41234;BME280;26968;42.686;23.352;2023-02-18T07:26:09;95867.09;;;5.59;nan
41234;BME280;26968;42.686;23.352;2023-02-18T07:28:35;95927.66;;;6.00;nan
41234;BME280;26968;42.686;23.352;2023-02-18T07:31:01;95892.31;;;5.78;nan
41234;BME280;26968;42.686;23.352;2023-02-18T07:33:26;95886.38;;;5.82;nan
41234;BME280;26968;42.686;23.352;2023-02-18T07:35:53;95954.47;;;6.09;nan
41234;BME280;26968;42.686;23.352;2023-02-18T07:38:19;95915.13;;;5.96;nan
41234;BME280;26968;42.686;23.352;2023-02-18T07:40:44;95964.13;;;6.38;nan
41234;BME280;26968;42.686;23.352;2023-02-18T07:43:10;95960.13;;;6.47;nan
41234;BME280;26968;42.686;23.352;2023-02-18T07:45:37;95887.22;;;6.06;nan
41234;BME280;26968;42.686;23.352;2023-02-18T07:48:03;95958.06;;;6.61;nan
41234;BME280;26968;42.686;23.352;2023-02-18T07:50:28;95949.66;;;6.64;nan
41234;BME280;26968;42.686;23.352;2023-02-18T07:52:59;95964.91;;;6.74;nan
41234;BME280;26968;42.686;23.352;2023-02-18T07:55:25;95938.09;;;6.65;nan
41234;BME280;26968;42.686;23.352;2023-02-18T07:58:10;95965.75;;;6.63;nan
41234;BME280;26968;42.686;23.352;2023-02-18T08:00:36;95965.84;;;6.33;nan
41234;BME280;26968;42.686;23.352;2023-02-18T08:03:01;95962.06;;;6.40;nan
41234;BME280;26968;42.686;23.352;2023-02-18T08:05:27;95895.38;;;5.75;nan
41234;BME280;26968;42.686;23.352;2023-02-18T08:07:52;95885.91;;;5.86;nan
41234;BME280;26968;42.686;23.352;2023-02-18T08:10:17;95922.38;;;6.00;nan
41234;BME280;26968;42.686;23.352;2023-02-18T08:12:43;95935.06;;;5.92;nan
41234;BME280;26968;42.686;23.352;2023-02-18T08:15:08;95910.56;;;5.91;nan
41234;BME280;26968;42.686;23.352;2023-02-18T08:17:34;95893.88;;;6.20;nan
41234;BME280;26968;42.686;23.352;2023-02-18T08:20:00;95931.69;;;6.61;nan
41234;BME280;26968;42.686;23.352;2023-02-18T08:22:26;95892.28;;;6.43;nan
41234;BME280;26968;42.686;23.352;2023-02-18T08:24:54;95902.47;;;6.63;nan
41234;BME280;26968;42.686;23.352;2023-02-18T08:27:20;95930.84;;;6.95;nan
41234;BME280;26968;42.686;23.352;2023-02-18T08:29:45;95903.66;;;6.95;nan
41234;BME280;26968;42.686;23.352;2023-02-18T08:32:12;95936.38;;;7.34;nan
41234;BME280;26968;42.686;23.352;2023-02-18T08:34:38;95944.88;;;7.36;nan
41234;BME280;26968;42.686;23.352;2023-02-18T08:37:03;95947.75;;;7.63;nan
41234;BME280;26968;42.686;23.352;2023-02-18T08:39:36;95923.81;;;7.53;nan
41234;BME280;26968;42.686;23.352;2023-02-18T08:42:01;95847.41;;;7.18;nan
41234;BME280;26968;42.686;23.352;2023-02-18T08:44:27;95925.47;;;7.87;nan
41234;BME280;26968;42.686;23.352;2023-02-18T08:46:53;95929.69;;;8.00;nan
41234;BME280;26968;42.686;23.352;2023-02-18T08:49:18;95855.34;;;7.63;nan
41234;BME280;26968;42.686;23.352;2023-02-18T08:51:46;95901.06;;;7.80;nan
41234;BME280;26968;42.686;23.352;2023-02-18T08:54:11;95912.06;;;8.05;nan
41234;BME280;26968;42.686;23.352;2023-02-18T08:56:37;95911.56;;;8.25;nan
41234;BME280;26968;42.686;23.352;2023-02-18T08:59:04;95931.94;;;8.58;nan
41234;BME280;26968;42.686;23.352;2023-02-18T09:01:30;95877.56;;;8.29;nan
41234;BME280;26968;42.686;23.352;2023-02-18T09:03:57;95933.13;;;8.67;nan
41234;BME280;26968;42.686;23.352;2023-02-18T09:06:23;95916.28;;;8.73;nan
41234;BME280;26968;42.686;23.352;2023-02-18T09:08:48;95935.63;;;8.96;nan
41234;BME280;26968;42.686;23.352;2023-02-18T09:11:14;95880.34;;;8.56;nan
41234;BME280;26968;42.686;23.352;2023-02-18T09:13:40;95932.75;;;8.97;nan
41234;BME280;26968;42.686;23.352;2023-02-18T09:16:08;95803.28;;;7.92;nan
41234;BME280;26968;42.686;23.352;2023-02-18T09:18:35;95910.81;;;8.80;nan
41234;BME280;26968;42.686;23.352;2023-02-18T09:21:00;95931.09;;;8.91;nan
41234;BME280;26968;42.686;23.352;2023-02-18T09:23:28;95933.66;;;8.86;nan
41234;BME280;26968;42.686;23.352;2023-02-18T09:25:54;95929.22;;;8.53;nan
41234;BME280;26968;42.686;23.352;2023-02-18T09:28:19;95920.69;;;8.84;nan
41234;BME280;26968;42.686;23.352;2023-02-18T09:30:45;95795.41;;;8.13;nan
41234;BME280;26968;42.686;23.352;2023-02-18T09:33:11;95894.94;;;8.80;nan
41234;BME280;26968;42.686;23.352;2023-02-18T09:35:44;95916.44;;;9.05;nan
41234;BME280;26968;42.686;23.352;2023-02-18T09:38:11;95910.50;;;9.15;nan
41234;BME280;26968;42.686;23.352;2023-02-18T09:40:41;95867.22;;;9.04;nan
41234;BME280;26968;42.686;23.352;2023-02-18T09:43:34;95884.28;;;9.13;nan
41234;BME280;26968;42.686;23.352;2023-02-18T09:45:58;95846.28;;;9.03;nan
41234;BME280;26968;42.686;23.352;2023-02-18T09:48:27;95808.84;;;8.89;nan
41234;BME280;26968;42.686;23.352;2023-02-18T09:50:55;95906.91;;;9.75;nan
41234;BME280;26968;42.686;23.352;2023-02-18T09:53:22;95815.03;;;9.21;nan
41234;BME280;26968;42.686;23.352;2023-02-18T09:55:50;95911.41;;;9.74;nan
41234;BME280;26968;42.686;23.352;2023-02-18T09:58:20;95879.47;;;9.59;nan
41234;BME280;26968;42.686;23.352;2023-02-18T10:01:06;95894.63;;;9.90;nan
41234;BME280;26968;42.686;23.352;2023-02-18T10:03:36;95899.75;;;10.02;nan
41234;BME280;26968;42.686;23.352;2023-02-18T10:06:10;95864.34;;;9.86;nan
41234;BME280;26968;42.686;23.352;2023-02-18T10:08:48;95888.69;;;10.10;nan
41234;BME280;26968;42.686;23.352;2023-02-18T10:11:21;95843.81;;;9.98;nan
41234;BME280;26968;42.686;23.352;2023-02-18T10:13:47;95882.59;;;10.41;nan
41234;BME280;26968;42.686;23.352;2023-02-18T10:16:17;95851.47;;;10.27;nan
41234;BME280;26968;42.686;23.352;2023-02-18T10:18:47;95830.84;;;10.34;nan
41234;BME280;26968;42.686;23.352;2023-02-18T10:21:20;95879.09;;;11.40;nan
41234;BME280;26968;42.686;23.352;2023-02-18T10:26:24;95826.56;;;13.33;nan
41234;BME280;26968;42.686;23.352;2023-02-18T10:28:50;95866.91;;;14.91;nan
41234;BME280;26968;42.686;23.352;2023-02-18T10:31:24;95827.47;;;15.07;nan
41234;BME280;26968;42.686;23.352;2023-02-18T10:33:58;95835.28;;;15.83;nan
41234;BME280;26968;42.686;23.352;2023-02-18T10:36:28;95801.13;;;16.59;nan
41234;BME280;26968;42.686;23.352;2023-02-18T10:50:26;95805.53;;;19.84;nan
41234;BME280;26968;42.686;23.352;2023-02-18T10:52:55;95740.47;;;19.56;nan
41234;BME280;26968;42.686;23.352;2023-02-18T11:00:48;95741.56;;;19.55;nan
41234;BME280;26968;42.686;23.352;2023-02-18T11:03:23;95792.06;;;19.50;nan
41234;BME280;26968;42.686;23.352;2023-02-18T11:05:54;95786.31;;;19.43;nan
41234;BME280;26968;42.686;23.352;2023-02-18T11:08:26;95815.16;;;19.03;nan
41234;BME280;26968;42.686;23.352;2023-02-18T11:10:53;95803.41;;;17.84;nan
41234;BME280;26968;42.686;23.352;2023-02-18T11:13:27;95803.41;;;17.84;nan
41234;BME280;26968;42.686;23.352;2023-02-18T11:16:13;95791.53;;;18.51;nan
41234;BME280;26968;42.686;23.352;2023-02-18T11:18:42;95728.41;;;17.43;nan
41234;BME280;26968;42.686;23.352;2023-02-18T11:21:30;95783.91;;;16.33;nan
41234;BME280;26968;42.686;23.352;2023-02-18T11:23:57;95770.00;;;15.10;nan
41234;BME280;26968;42.686;23.352;2023-02-18T11:26:32;95703.56;;;14.42;nan
41234;BME280;26968;42.686;23.352;2023-02-18T11:29:21;95779.19;;;14.56;nan
41234;BME280;26968;42.686;23.352;2023-02-18T11:31:50;95708.84;;;13.94;nan
41234;BME280;26968;42.686;23.352;2023-02-18T11:34:20;95736.56;;;13.93;nan
41234;BME280;26968;42.686;23.352;2023-02-18T11:36:47;95709.66;;;13.89;nan
41234;BME280;26968;42.686;23.352;2023-02-18T11:39:23;95758.22;;;14.15;nan
41234;BME280;26968;42.686;23.352;2023-02-18T11:42:02;95759.09;;;14.40;nan
41234;BME280;26968;42.686;23.352;2023-02-18T11:44:34;95750.59;;;14.33;nan
41234;BME280;26968;42.686;23.352;2023-02-18T11:49:39;95751.00;;;14.45;nan
41234;BME280;26968;42.686;23.352;2023-02-18T11:52:24;95741.03;;;14.79;nan
41234;BME280;26968;42.686;23.352;2023-02-18T11:55:22;95731.97;;;15.18;nan
41234;BME280;26968;42.686;23.352;2023-02-18T11:57:54;95726.91;;;15.16;nan
41234;BME280;26968;42.686;23.352;2023-02-18T12:00:23;95718.59;;;15.36;nan
41234;BME280;26968;42.686;23.352;2023-02-18T12:02:55;95716.72;;;15.37;nan
41234;BME280;26968;42.686;23.352;2023-02-18T12:05:25;95713.69;;;15.62;nan
41234;BME280;26968;42.686;23.352;2023-02-18T12:10:33;95684.75;;;15.97;nan
41234;BME280;26968;42.686;23.352;2023-02-18T12:13:04;95695.28;;;16.20;nan
41234;BME280;26968;42.686;23.352;2023-02-18T12:15:40;95708.66;;;16.07;nan
41234;BME280;26968;42.686;23.352;2023-02-18T12:23:59;95696.19;;;15.70;nan
41234;BME280;26968;42.686;23.352;2023-02-18T12:26:29;95692.88;;;15.40;nan
41234;BME280;26968;42.686;23.352;2023-02-18T12:29:40;95687.53;;;15.22;nan
41234;BME280;26968;42.686;23.352;2023-02-18T12:35:16;95640.63;;;14.78;nan
41234;BME280;26968;42.686;23.352;2023-02-18T12:42:59;95664.06;;;15.19;nan
41234;BME280;26968;42.686;23.352;2023-02-18T12:48:43;95639.72;;;15.39;nan
41234;BME280;26968;42.686;23.352;2023-02-18T13:02:02;95652.72;;;15.78;nan
41234;BME280;26968;42.686;23.352;2023-02-18T13:10:06;95654.75;;;16.00;nan
41234;BME280;26968;42.686;23.352;2023-02-18T13:12:47;95649.00;;;16.06;nan
41234;BME280;26968;42.686;23.352;2023-02-18T13:17:56;95592.19;;;15.55;nan
41234;BME280;26968;42.686;23.352;2023-02-18T13:20:25;95646.59;;;15.77;nan
41234;BME280;26968;42.686;23.352;2023-02-18T13:22:53;95635.81;;;15.96;nan
41234;BME280;26968;42.686;23.352;2023-02-18T13:25:19;95637.25;;;15.75;nan
41234;BME280;26968;42.686;23.352;2023-02-18T13:35:28;95649.28;;;15.07;nan
41234;BME280;26968;42.686;23.352;2023-02-18T13:40:50;95647.38;;;14.52;nan
41234;BME280;26968;42.686;23.352;2023-02-18T13:43:17;95642.84;;;14.52;nan
41234;BME280;26968;42.686;23.352;2023-02-18T13:45:43;95609.19;;;14.09;nan
41234;BME280;26968;42.686;23.352;2023-02-18T13:48:27;95576.50;;;13.98;nan
41234;BME280;26968;42.686;23.352;2023-02-18T13:50:59;95606.53;;;14.09;nan
41234;BME280;26968;42.686;23.352;2023-02-18T13:53:28;95648.13;;;14.34;nan
41234;BME280;26968;42.686;23.352;2023-02-18T13:56:26;95628.44;;;14.06;nan
41234;BME280;26968;42.686;23.352;2023-02-18T14:01:51;95587.78;;;13.66;nan
41234;BME280;26968;42.686;23.352;2023-02-18T14:09:51;95582.06;;;13.54;nan
41234;BME280;26968;42.686;23.352;2023-02-18T14:12:25;95547.44;;;13.25;nan
41234;BME280;26968;42.686;23.352;2023-02-18T14:14:51;95620.63;;;13.62;nan
41234;BME280;26968;42.686;23.352;2023-02-18T14:19:58;95650.03;;;13.80;nan
41234;BME280;26968;42.686;23.352;2023-02-18T14:27:39;95601.66;;;13.39;nan
41234;BME280;26968;42.686;23.352;2023-02-18T14:30:25;95642.75;;;13.62;nan
41234;BME280;26968;42.686;23.352;2023-02-18T14:32:59;95647.38;;;13.51;nan
41234;BME280;26968;42.686;23.352;2023-02-18T14:35:38;95656.41;;;13.56;nan
41234;BME280;26968;42.686;23.352;2023-02-18T14:38:28;95655.66;;;13.50;nan
41234;BME280;26968;42.686;23.352;2023-02-18T14:41:08;95650.56;;;13.53;nan
41234;BME280;26968;42.686;23.352;2023-02-18T14:52:04;95613.66;;;13.37;nan
41234;BME280;26968;42.686;23.352;2023-02-18T14:54:31;95631.09;;;13.53;nan
41234;BME280;26968;42.686;23.352;2023-02-18T14:59:27;95644.53;;;13.72;nan
41234;BME280;26968;42.686;23.352;2023-02-18T15:01:55;95612.22;;;13.49;nan
41234;BME280;26968;42.686;23.352;2023-02-18T15:04:23;95627.22;;;13.69;nan
41234;BME280;26968;42.686;23.352;2023-02-18T15:07:03;95645.34;;;13.67;nan
41234;BME280;26968;42.686;23.352;2023-02-18T15:09:29;95622.97;;;13.39;nan
41234;BME280;26968;42.686;23.352;2023-02-18T15:12:17;95646.34;;;13.47;nan
41234;BME280;26968;42.686;23.352;2023-02-18T15:14:44;95593.34;;;13.12;nan
41234;BME280;26968;42.686;23.352;2023-02-18T15:17:16;95589.97;;;13.01;nan
41234;BME280;26968;42.686;23.352;2023-02-18T15:19:48;95614.91;;;13.16;nan
41234;BME280;26968;42.686;23.352;2023-02-18T15:22:20;95569.84;;;12.85;nan
41234;BME280;26968;42.686;23.352;2023-02-18T15:24:47;95632.97;;;13.24;nan
41234;BME280;26968;42.686;23.352;2023-02-18T15:27:16;95572.00;;;12.83;nan
41234;BME280;26968;42.686;23.352;2023-02-18T15:29:55;95630.38;;;13.13;nan
41234;BME280;26968;42.686;23.352;2023-02-18T15:32:22;95627.78;;;12.98;nan
41234;BME280;26968;42.686;23.352;2023-02-18T15:34:50;95579.84;;;12.64;nan
41234;BME280;26968;42.686;23.352;2023-02-18T15:37:16;95550.44;;;12.46;nan
41234;BME280;26968;42.686;23.352;2023-02-18T15:39:42;95470.22;;;11.84;nan
41234;BME280;26968;42.686;23.352;2023-02-18T15:42:33;95614.94;;;12.66;nan